createdAt,value
2023-02-03T00:00:58.500Z,101351.03
2023-02-03T00:02:00.301Z,101348.38
2023-02-03T00:03:02.467Z,101348.38
2023-02-03T00:04:04.432Z,101343.28
2023-02-03T00:05:06.830Z,101341.34
2023-02-03T00:06:08.724Z,101346.66
2023-02-03T00:07:14.005Z,101345.91
2023-02-03T00:08:17.799Z,101353.69
2023-02-03T00:09:20.703Z,101340.06
2023-02-03T00:10:22.835Z,101336.69
2023-02-03T00:11:26.409Z,101341.69
2023-02-03T00:12:28.871Z,101344.75
2023-02-03T00:13:30.765Z,101349.66
2023-02-03T00:14:33.729Z,101336.25
2023-02-03T00:15:35.680Z,101350.69
2023-02-03T00:16:37.572Z,101347.28
2023-02-03T00:17:39.428Z,101341.16
2023-02-03T00:18:41.198Z,101351.78
2023-02-03T00:19:43.064Z,101347.28
2023-02-03T00:20:44.859Z,101353.56
2023-02-03T00:21:46.648Z,101353.69
2023-02-03T00:22:48.999Z,101351.97
2023-02-03T00:23:50.800Z,101351.97
2023-02-03T00:24:52.676Z,101350.28
2023-02-03T00:25:54.504Z,101348.78
2023-02-03T00:26:56.284Z,101346.00
2023-02-03T00:27:58.322Z,101351.22
2023-02-03T00:29:00.746Z,101346.88
2023-02-03T00:30:02.576Z,101347.91
2023-02-03T00:31:04.627Z,101349.53
2023-02-03T00:32:06.693Z,101349.53
2023-02-03T00:33:08.658Z,101333.44
2023-02-03T00:34:10.821Z,101355.78
2023-02-03T00:35:12.733Z,101337.06
2023-02-03T00:36:14.662Z,101346.97
2023-02-03T00:37:16.532Z,101342.16
2023-02-03T00:38:18.405Z,101352.38
2023-02-03T00:39:20.325Z,101343.66
2023-02-03T00:40:24.473Z,101350.66
2023-02-03T00:41:29.752Z,101345.34
2023-02-03T00:42:31.919Z,101346.22
2023-02-03T00:43:34.309Z,101339.22
2023-02-03T00:44:36.104Z,101348.97
2023-02-03T00:45:37.951Z,101340.16
2023-02-03T00:46:39.825Z,101342.81
2023-02-03T00:47:41.725Z,101334.94
2023-02-03T00:48:43.714Z,101341.13
2023-02-03T00:49:45.666Z,101334.09
2023-02-03T00:50:48.285Z,101337.78
2023-02-03T00:51:50.756Z,101334.19
2023-02-03T00:52:52.556Z,101326.84
2023-02-03T00:53:54.389Z,101335.13
2023-02-03T00:54:57.779Z,101327.72
2023-02-03T00:55:59.584Z,101318.25
2023-02-03T00:57:01.356Z,101331.09
2023-02-03T00:58:03.177Z,101330.16
2023-02-03T00:59:06.214Z,101337.91
2023-02-03T01:00:08.892Z,101335.34
2023-02-03T01:01:11.859Z,101341.53
2023-02-03T01:02:13.819Z,101340.66
2023-02-03T01:03:16.852Z,101338.00
2023-02-03T01:04:18.766Z,101327.72
2023-02-03T01:05:20.679Z,101326.84
2023-02-03T01:06:22.542Z,101325.81
2023-02-03T01:07:24.373Z,101318.88
2023-02-03T01:08:26.429Z,101322.50
2023-02-03T01:09:28.351Z,101313.03
2023-02-03T01:10:30.515Z,101325.88
2023-02-03T01:11:32.912Z,101323.22
2023-02-03T01:12:34.812Z,101323.34
2023-02-03T01:13:36.923Z,101316.63
2023-02-03T01:14:43.164Z,101320.78
2023-02-03T01:15:48.550Z,101316.63
2023-02-03T01:16:50.450Z,101322.59
2023-02-03T01:17:52.719Z,101327.91
2023-02-03T01:18:55.674Z,101329.69
2023-02-03T01:19:57.495Z,101324.50
2023-02-03T01:21:05.499Z,101319.50
2023-02-03T01:22:07.544Z,101314.19
2023-02-03T01:23:09.386Z,101311.63
2023-02-03T01:24:11.369Z,101310.50
2023-02-03T01:25:13.963Z,101322.03
2023-02-03T01:26:18.359Z,101317.78
2023-02-03T01:27:20.261Z,101320.44
2023-02-03T01:28:22.081Z,101319.59
2023-02-03T01:29:23.952Z,101317.97
2023-02-03T01:30:26.184Z,101315.50
2023-02-03T01:31:31.794Z,101325.06
2023-02-03T01:32:34.137Z,101311.38
2023-02-03T01:33:36.040Z,101328.59
2023-02-03T01:34:37.946Z,101311.38
2023-02-03T01:35:41.071Z,101323.28
2023-02-03T01:36:46.864Z,101304.34
2023-02-03T01:37:48.804Z,101311.16
2023-02-03T01:38:51.140Z,101313.06
2023-02-03T01:39:52.932Z,101317.22
2023-02-03T01:40:55.053Z,101314.03
2023-02-03T01:41:57.281Z,101295.28
2023-02-03T01:42:59.057Z,101321.97
2023-02-03T01:44:02.333Z,101309.00
2023-02-03T01:45:05.221Z,101322.72
2023-02-03T01:46:30.161Z,101320.63
2023-02-03T01:47:41.315Z,101290.72
2023-02-03T01:48:43.233Z,101317.03
2023-02-03T01:49:49.791Z,101289.97
2023-02-03T01:50:51.662Z,101308.50
2023-02-03T01:51:54.291Z,101310.28
2023-02-03T01:53:07.034Z,101306.81
2023-02-03T01:54:31.376Z,101297.03
2023-02-03T01:55:40.834Z,101308.31
2023-02-03T01:56:48.261Z,101304.91
2023-02-03T01:57:54.406Z,101308.50
2023-02-03T01:58:56.517Z,101300.97
2023-02-03T01:59:59.931Z,101301.91
2023-02-03T02:01:02.963Z,101302.66
2023-02-03T02:02:06.941Z,101300.22
2023-02-03T02:03:09.306Z,101299.34
2023-02-03T02:04:11.611Z,101292.53
2023-02-03T02:05:25.659Z,101307.41
2023-02-03T02:06:27.957Z,101300.41
2023-02-03T02:07:31.367Z,101295.09
2023-02-03T02:08:34.318Z,101298.59
2023-02-03T02:09:36.535Z,101296.03
2023-02-03T02:10:38.920Z,101298.69
2023-02-03T02:11:40.745Z,101289.44
2023-02-03T02:12:44.010Z,101296.97
2023-02-03T02:13:46.720Z,101295.28
2023-02-03T02:14:48.835Z,101280.84
2023-02-03T02:16:06.694Z,101298.88
2023-02-03T02:17:24.995Z,101280.50
2023-02-03T02:18:42.040Z,101295.72
2023-02-03T02:20:05.620Z,101293.00
2023-02-03T02:21:38.192Z,101288.53
2023-02-03T02:22:56.828Z,101286.75
2023-02-03T02:24:26.157Z,101286.81
2023-02-03T02:25:44.430Z,101290.22
2023-02-03T02:27:00.865Z,101282.59
2023-02-03T02:28:11.638Z,101285.31
2023-02-03T02:29:19.601Z,101288.06
2023-02-03T02:30:49.725Z,101281.91
2023-02-03T02:32:18.627Z,101290.53
2023-02-03T02:33:38.606Z,101280.03
2023-02-03T02:34:57.569Z,101274.06
2023-02-03T02:36:18.716Z,101278.53
2023-02-03T02:37:35.301Z,101265.88
2023-02-03T02:39:01.318Z,101287.44
2023-02-03T02:40:09.357Z,101278.59
2023-02-03T02:41:26.559Z,101278.06
2023-02-03T02:42:35.256Z,101279.75
2023-02-03T02:43:57.904Z,101273.63
2023-02-03T02:45:09.001Z,101281.66
2023-02-03T02:46:27.966Z,101278.06
2023-02-03T02:47:30.249Z,101272.97
2023-02-03T02:48:38.130Z,101273.38
2023-02-03T02:49:44.695Z,101273.16
2023-02-03T02:50:50.002Z,101277.72
2023-02-03T02:51:53.243Z,101262.41
2023-02-03T02:52:56.950Z,101278.69
2023-02-03T02:54:03.630Z,101273.56
2023-02-03T02:55:15.539Z,101271.00
2023-02-03T02:56:19.856Z,101278.78
2023-02-03T02:57:26.662Z,101281.44
2023-02-03T02:58:30.470Z,101275.28
2023-02-03T02:59:32.570Z,101275.28
2023-02-03T03:00:35.754Z,101278.88
2023-02-03T03:01:38.036Z,101281.53
2023-02-03T03:02:39.911Z,101274.53
2023-02-03T03:03:44.524Z,101275.97
2023-02-03T03:04:49.933Z,101263.66
2023-02-03T03:05:56.341Z,101280.78
2023-02-03T03:07:11.631Z,101272.69
2023-02-03T03:08:16.807Z,101271.75
2023-02-03T03:09:42.663Z,101275.06
2023-02-03T03:10:45.784Z,101264.88
2023-02-03T03:11:51.265Z,101275.28
2023-02-03T03:12:57.155Z,101277.19
2023-02-03T03:14:02.431Z,101278.13
2023-02-03T03:15:11.547Z,101270.16
2023-02-03T03:16:15.015Z,101268.66
2023-02-03T03:17:28.712Z,101273.78
2023-02-03T03:18:45.287Z,101263.38
2023-02-03T03:19:52.671Z,101259.09
2023-02-03T03:20:59.562Z,101264.88
2023-02-03T03:22:07.556Z,101259.66
2023-02-03T03:23:22.162Z,101264.00
2023-02-03T03:24:29.876Z,101264.00
2023-02-03T03:25:38.912Z,101260.06
2023-02-03T03:26:55.456Z,101273.66
2023-02-03T03:28:05.963Z,101265.69
2023-02-03T03:29:18.358Z,101248.81
2023-02-03T03:30:27.487Z,101259.75
2023-02-03T03:31:29.714Z,101261.47
2023-02-03T03:32:33.162Z,101262.63
2023-02-03T03:33:35.097Z,101264.53
2023-02-03T03:34:37.134Z,101254.84
2023-02-03T03:35:49.554Z,101258.47
2023-02-03T03:37:08.998Z,101266.22
2023-02-03T03:38:19.290Z,101245.50
2023-02-03T03:39:44.214Z,101263.38
2023-02-03T03:40:53.460Z,101259.00
2023-02-03T03:42:03.818Z,101267.91
2023-02-03T03:43:16.633Z,101258.47
2023-02-03T03:44:20.469Z,101259.22
2023-02-03T03:45:28.712Z,101262.06
2023-02-03T03:46:38.530Z,101268.31
2023-02-03T03:48:03.397Z,101266.63
2023-02-03T03:49:08.767Z,101267.38
2023-02-03T03:50:15.514Z,101240.78
2023-02-03T03:51:28.729Z,101245.63
2023-02-03T03:52:35.109Z,101257.44
2023-02-03T03:53:40.895Z,101261.81
2023-02-03T03:54:43.808Z,101261.81
2023-02-03T03:55:49.958Z,101269.63
2023-02-03T03:57:38.921Z,101272.69
2023-02-03T03:58:46.455Z,101282.34
2023-02-03T03:59:49.703Z,101266.25
2023-02-03T04:00:56.146Z,101281.03
2023-02-03T04:02:04.590Z,101273.44
2023-02-03T04:03:14.809Z,101268.34
2023-02-03T04:04:17.664Z,101280.25
2023-02-03T04:05:20.436Z,101283.84
2023-02-03T04:06:22.229Z,101282.16
2023-02-03T04:07:24.077Z,101281.38
2023-02-03T04:08:25.915Z,101288.50
2023-02-03T04:09:28.839Z,101289.66
2023-02-03T04:10:39.253Z,101284.25
2023-02-03T04:11:59.515Z,101288.50
2023-02-03T04:13:01.610Z,101287.44
2023-02-03T04:14:03.920Z,101292.94
2023-02-03T04:15:05.992Z,101251.91
2023-02-03T04:16:08.013Z,101264.22
2023-02-03T04:17:09.867Z,101287.41
2023-02-03T04:18:13.975Z,101278.91
2023-02-03T04:19:15.925Z,101292.59
2023-02-03T04:20:18.206Z,101294.22
2023-02-03T04:21:21.970Z,101298.66
2023-02-03T04:22:23.743Z,101294.28
2023-02-03T04:23:25.542Z,101296.94
2023-02-03T04:24:27.385Z,101295.44
2023-02-03T04:25:29.222Z,101301.41
2023-02-03T04:26:31.145Z,101302.25
2023-02-03T04:27:32.900Z,101301.41
2023-02-03T04:28:34.830Z,101288.63
2023-02-03T04:29:36.606Z,101298.84
2023-02-03T04:30:38.392Z,101305.00
2023-02-03T04:31:40.337Z,101298.00
2023-02-03T04:32:42.146Z,101298.00
2023-02-03T04:33:43.964Z,101301.59
2023-02-03T04:34:46.553Z,101306.03
2023-02-03T04:35:48.326Z,101309.56
2023-02-03T04:36:50.152Z,101306.03
2023-02-03T04:37:52.059Z,101304.34
2023-02-03T04:38:53.857Z,101305.19
2023-02-03T04:39:56.020Z,101317.59
2023-02-03T04:40:57.882Z,101311.47
2023-02-03T04:41:59.679Z,101322.13
2023-02-03T04:43:06.768Z,101322.13
2023-02-03T04:44:09.393Z,101314.09
2023-02-03T04:45:12.614Z,101310.09
2023-02-03T04:46:14.561Z,101312.56
2023-02-03T04:47:16.693Z,101316.84
2023-02-03T04:48:18.503Z,101315.13
2023-02-03T04:49:20.315Z,101320.44
2023-02-03T04:50:22.105Z,101322.34
2023-02-03T04:51:23.930Z,101278.81
2023-02-03T04:52:26.025Z,101316.09
2023-02-03T04:53:27.874Z,101308.72
2023-02-03T04:54:29.771Z,101310.03
2023-02-03T04:55:31.622Z,101315.34
2023-02-03T04:56:33.397Z,101316.56
2023-02-03T04:57:35.249Z,101317.97
2023-02-03T04:58:37.816Z,101317.13
2023-02-03T04:59:39.560Z,101323.28
2023-02-03T05:00:41.565Z,101312.13
2023-02-03T05:01:43.479Z,101294.34
2023-02-03T05:02:45.189Z,101323.28
2023-02-03T05:03:46.936Z,101318.94
2023-02-03T05:04:48.835Z,101326.13
2023-02-03T05:05:50.958Z,101322.53
2023-02-03T05:06:52.845Z,101304.63
2023-02-03T05:07:54.788Z,101329.72
2023-02-03T05:08:56.546Z,101324.44
2023-02-03T05:09:58.481Z,101324.44
2023-02-03T05:11:02.118Z,101328.84
2023-02-03T05:12:04.430Z,101329.72
2023-02-03T05:13:06.352Z,101326.31
2023-02-03T05:14:08.173Z,101331.63
2023-02-03T05:15:10.226Z,101331.63
2023-02-03T05:16:12.137Z,101325.66
2023-02-03T05:17:13.983Z,101335.22
2023-02-03T05:18:15.840Z,101325.94
2023-02-03T05:19:17.580Z,101333.50
2023-02-03T05:20:19.427Z,101339.66
2023-02-03T05:21:21.376Z,101337.94
2023-02-03T05:22:23.145Z,101341.47
2023-02-03T05:23:25.159Z,101339.75
2023-02-03T05:24:27.075Z,101344.13
2023-02-03T05:25:28.896Z,101340.72
2023-02-03T05:26:30.753Z,101334.53
2023-02-03T05:27:32.517Z,101347.72
2023-02-03T05:28:34.622Z,101326.41
2023-02-03T05:29:36.492Z,101326.16
2023-02-03T05:30:38.412Z,101334.84
2023-02-03T05:31:40.425Z,101351.31
2023-02-03T05:32:42.282Z,101338.91
2023-02-03T05:33:44.060Z,101348.66
2023-02-03T05:34:47.943Z,101346.09
2023-02-03T05:35:49.729Z,101346.97
2023-02-03T05:36:51.552Z,101350.56
2023-02-03T05:37:53.505Z,101349.59
2023-02-03T05:38:55.252Z,101341.16
2023-02-03T05:40:16.990Z,101351.50
2023-02-03T05:41:37.559Z,101346.78
2023-02-03T05:42:39.316Z,101330.31
2023-02-03T05:43:41.083Z,101349.41
2023-02-03T05:44:42.931Z,101350.38
2023-02-03T05:45:44.832Z,101350.44
2023-02-03T05:46:46.811Z,101351.50
2023-02-03T05:47:48.626Z,101350.56
2023-02-03T05:48:50.465Z,101350.63
2023-02-03T05:49:52.248Z,101348.19
2023-02-03T05:50:54.129Z,101346.19
2023-02-03T05:51:57.114Z,101351.50
2023-02-03T05:53:03.061Z,101353.28
2023-02-03T05:54:05.482Z,101346.59
2023-02-03T05:55:07.628Z,101347.97
2023-02-03T05:56:09.448Z,101347.97
2023-02-03T05:57:11.327Z,101344.50
2023-02-03T05:58:13.173Z,101354.16
2023-02-03T05:59:15.139Z,101350.75
2023-02-03T06:00:17.401Z,101356.03
2023-02-03T06:01:20.470Z,101345.53
2023-02-03T06:02:22.283Z,101328.69
2023-02-03T06:03:24.221Z,101343.16
2023-02-03T06:04:26.283Z,101359.66
2023-02-03T06:05:29.788Z,101356.25
2023-02-03T06:06:34.939Z,101356.13
2023-02-03T06:07:36.861Z,101357.75
2023-02-03T06:08:38.650Z,101363.13
2023-02-03T06:09:40.470Z,101352.03
2023-02-03T06:10:42.313Z,101362.19
2023-02-03T06:11:44.243Z,101361.22
2023-02-03T06:12:46.128Z,101361.22
2023-02-03T06:13:47.895Z,101362.84
2023-02-03T06:14:49.707Z,101357.63
2023-02-03T06:15:51.488Z,101363.50
2023-02-03T06:16:53.646Z,101353.78
2023-02-03T06:17:55.542Z,101360.78
2023-02-03T06:18:59.689Z,101359.81
2023-02-03T06:20:04.829Z,101358.56
2023-02-03T06:21:06.696Z,101360.13
2023-02-03T06:22:08.560Z,101360.88
2023-02-03T06:23:10.476Z,101370.34
2023-02-03T06:24:12.638Z,101357.16
2023-02-03T06:25:14.469Z,101367.28
2023-02-03T06:26:16.398Z,101351.47
2023-02-03T06:27:18.246Z,101367.75
2023-02-03T06:28:20.267Z,101366.97
2023-02-03T06:29:22.151Z,101372.69
2023-02-03T06:30:23.979Z,101370.78
2023-02-03T06:31:26.383Z,101367.94
2023-02-03T06:32:28.913Z,101361.13
2023-02-03T06:33:31.397Z,101371.91
2023-02-03T06:34:33.809Z,101369.44
2023-02-03T06:35:35.816Z,101375.88
2023-02-03T06:36:37.672Z,101377.56
2023-02-03T06:37:39.510Z,101379.06
2023-02-03T06:38:41.275Z,101382.47
2023-02-03T06:39:43.066Z,101387.59
2023-02-03T06:40:47.948Z,101383.03
2023-02-03T06:41:51.841Z,101387.09
2023-02-03T06:42:53.645Z,101382.53
2023-02-03T06:43:55.451Z,101386.81
2023-02-03T06:44:57.269Z,101390.22
2023-02-03T06:45:59.151Z,101394.47
2023-02-03T06:47:02.986Z,101367.66
2023-02-03T06:48:05.048Z,101390.66
2023-02-03T06:49:06.884Z,101386.09
2023-02-03T06:50:10.356Z,101375.44
2023-02-03T06:51:12.133Z,101391.16
2023-02-03T06:52:14.654Z,101388.38
2023-02-03T06:53:16.636Z,101388.38
2023-02-03T06:54:18.528Z,101377.13
2023-02-03T06:55:20.433Z,101390.00
2023-02-03T06:56:22.245Z,101387.16
2023-02-03T06:57:24.044Z,101375.97
2023-02-03T06:58:25.856Z,101377.78
2023-02-03T06:59:27.788Z,101395.03
2023-02-03T07:00:29.880Z,101373.31
2023-02-03T07:01:32.093Z,101387.91
2023-02-03T07:02:33.901Z,101391.22
2023-02-03T07:03:35.752Z,101382.69
2023-02-03T07:04:38.905Z,101397.16
2023-02-03T07:05:40.907Z,101402.47
2023-02-03T07:06:42.809Z,101386.53
2023-02-03T07:07:44.557Z,101392.72
2023-02-03T07:08:46.349Z,101394.41
2023-02-03T07:09:48.182Z,101397.91
2023-02-03T07:10:54.838Z,101398.84
2023-02-03T07:11:56.678Z,101401.31
2023-02-03T07:13:03.790Z,101398.66
2023-02-03T07:14:05.591Z,101389.31
2023-02-03T07:15:07.915Z,101407.38
2023-02-03T07:16:09.745Z,101407.38
2023-02-03T07:17:11.646Z,101407.38
2023-02-03T07:18:17.989Z,101405.59
2023-02-03T07:19:23.328Z,101390.88
2023-02-03T07:20:25.497Z,101412.59
2023-02-03T07:21:27.433Z,101405.88
2023-02-03T07:22:29.262Z,101403.75
2023-02-03T07:23:31.049Z,101405.59
2023-02-03T07:24:35.285Z,101410.88
2023-02-03T07:25:37.156Z,101412.69
2023-02-03T07:26:39.325Z,101410.88
2023-02-03T07:27:41.228Z,101418.00
2023-02-03T07:28:43.373Z,101406.81
2023-02-03T07:29:45.204Z,101417.16
2023-02-03T07:30:48.552Z,101418.84
2023-02-03T07:31:50.495Z,101417.81
2023-02-03T07:32:53.744Z,101400.69
2023-02-03T07:33:56.352Z,101414.38
2023-02-03T07:34:58.152Z,101423.13
2023-02-03T07:36:00.727Z,101416.13
2023-02-03T07:37:02.614Z,101414.38
2023-02-03T07:38:04.381Z,101400.75
2023-02-03T07:39:06.184Z,101417.81
2023-02-03T07:40:08.313Z,101410.97
2023-02-03T07:41:10.244Z,101416.88
2023-02-03T07:42:12.028Z,101422.19
2023-02-03T07:43:20.040Z,101427.38
2023-02-03T07:44:21.942Z,101424.72
2023-02-03T07:45:24.910Z,101425.59
2023-02-03T07:46:26.839Z,101428.22
2023-02-03T07:47:28.633Z,101415.34
2023-02-03T07:48:30.454Z,101429.06
2023-02-03T07:49:32.227Z,101415.53
2023-02-03T07:50:34.104Z,101435.25
2023-02-03T07:51:36.065Z,101429.94
2023-02-03T07:52:38.361Z,101432.47
2023-02-03T07:53:40.216Z,101423.13
2023-02-03T07:54:42.008Z,101426.22
2023-02-03T07:55:43.866Z,101412.50
2023-02-03T07:56:45.970Z,101421.22
2023-02-03T07:57:48.040Z,101424.22
2023-02-03T07:58:53.008Z,101424.22
2023-02-03T07:59:54.996Z,101427.63
2023-02-03T08:00:57.710Z,101431.22
2023-02-03T08:01:59.593Z,101431.13
2023-02-03T08:03:01.586Z,101422.81
2023-02-03T08:04:05.482Z,101444.31
2023-02-03T08:05:07.792Z,101439.09
2023-02-03T08:06:10.261Z,101448.47
2023-02-03T08:07:12.079Z,101449.63
2023-02-03T08:08:14.178Z,101445.06
2023-02-03T08:09:16.172Z,101453.78
2023-02-03T08:10:18.044Z,101454.53
2023-02-03T08:11:19.896Z,101451.00
2023-02-03T08:12:21.782Z,101454.53
2023-02-03T08:13:23.731Z,101431.44
2023-02-03T08:14:25.503Z,101433.13
2023-02-03T08:15:27.493Z,101449.13
2023-02-03T08:16:29.474Z,101460.59
2023-02-03T08:17:31.417Z,101459.63
2023-02-03T08:18:33.402Z,101453.56
2023-02-03T08:19:35.367Z,101450.38
2023-02-03T08:20:37.136Z,101460.59
2023-02-03T08:21:39.018Z,101461.34
2023-02-03T08:22:40.925Z,101449.63
2023-02-03T08:23:42.739Z,101465.69
2023-02-03T08:24:46.159Z,101449.97
2023-02-03T08:25:52.820Z,101463.03
2023-02-03T08:26:54.624Z,101463.69
2023-02-03T08:27:56.458Z,101464.66
2023-02-03T08:28:58.445Z,101462.94
2023-02-03T08:30:00.296Z,101471.66
2023-02-03T08:31:02.166Z,101472.50
2023-02-03T08:32:05.405Z,101470.81
2023-02-03T08:33:08.346Z,101473.38
2023-02-03T08:34:10.275Z,101469.84
2023-02-03T08:35:12.180Z,101480.47
2023-02-03T08:36:14.218Z,101487.50
2023-02-03T08:37:18.081Z,101469.44
2023-02-03T08:38:21.969Z,101490.16
2023-02-03T08:39:23.995Z,101490.16
2023-02-03T08:40:26.326Z,101495.38
2023-02-03T08:41:28.391Z,101493.00
2023-02-03T08:42:30.256Z,101498.88
2023-02-03T08:43:32.023Z,101502.47
2023-02-03T08:44:34.502Z,101507.78
2023-02-03T08:45:36.389Z,101507.78
2023-02-03T08:46:43.608Z,101491.41
2023-02-03T08:47:45.476Z,101508.53
2023-02-03T08:48:47.415Z,101512.06
2023-02-03T08:49:49.267Z,101502.69
2023-02-03T08:50:53.028Z,101509.41
2023-02-03T08:51:56.308Z,101516.50
2023-02-03T08:52:58.117Z,101512.91
2023-02-03T08:53:59.936Z,101514.72
2023-02-03T08:55:02.135Z,101520.03
2023-02-03T08:56:09.100Z,101528.84
2023-02-03T08:57:11.008Z,101519.09
2023-02-03T08:58:12.851Z,101514.06
2023-02-03T08:59:18.007Z,101523.53
2023-02-03T09:00:20.381Z,101495.72
2023-02-03T09:01:22.408Z,101517.88
2023-02-03T09:02:24.280Z,101531.69
2023-02-03T09:03:26.128Z,101544.78
2023-02-03T09:04:28.025Z,101543.06
2023-02-03T09:05:33.264Z,101526.16
2023-02-03T09:06:36.474Z,101544.97
2023-02-03T09:07:38.340Z,101548.19
2023-02-03T09:08:40.157Z,101541.38
2023-02-03T09:09:41.924Z,101543.06
2023-02-03T09:10:43.767Z,101537.75
2023-02-03T09:11:45.623Z,101553.69
2023-02-03T09:12:47.482Z,101556.28
2023-02-03T09:13:50.178Z,101561.69
2023-02-03T09:14:51.980Z,101550.28
2023-02-03T09:15:53.791Z,101560.72
2023-02-03T09:16:56.120Z,101553.06
2023-02-03T09:17:58.085Z,101545.19
2023-02-03T09:18:59.959Z,101558.19
2023-02-03T09:20:01.804Z,101559.97
2023-02-03T09:21:05.546Z,101558.19
2023-02-03T09:22:07.386Z,101546.25
2023-02-03T09:23:09.380Z,101561.69
2023-02-03T09:24:11.290Z,101524.38
2023-02-03T09:25:13.953Z,101568.81
2023-02-03T09:26:17.362Z,101563.78
2023-02-03T09:27:19.188Z,101565.28
2023-02-03T09:28:21.054Z,101561.78
2023-02-03T09:29:23.328Z,101560.94
2023-02-03T09:30:25.253Z,101565.59
2023-02-03T09:31:27.226Z,101571.47
2023-02-03T09:32:29.128Z,101574.97
2023-02-03T09:33:30.986Z,101575.91
2023-02-03T09:34:32.770Z,101569.84
2023-02-03T09:35:34.575Z,101583.88
2023-02-03T09:36:37.658Z,101588.25
2023-02-03T09:37:39.439Z,101580.28
2023-02-03T09:38:41.463Z,101575.91
2023-02-03T09:39:43.263Z,101582.09
2023-02-03T09:40:51.155Z,101578.56
2023-02-03T09:42:08.514Z,101550.69
2023-02-03T09:43:47.843Z,101577.97
2023-02-03T09:45:08.870Z,101563.94
2023-02-03T09:46:21.086Z,101581.41
2023-02-03T09:47:27.332Z,101563.38
2023-02-03T09:48:36.697Z,101581.69
2023-02-03T09:49:43.691Z,101569.75
2023-02-03T09:50:46.807Z,101579.25
2023-02-03T09:52:02.722Z,101586.34
2023-02-03T09:53:14.400Z,101578.28
2023-02-03T09:54:34.626Z,101584.34
2023-02-03T09:55:47.587Z,101583.41
2023-02-03T09:56:52.602Z,101588.72
2023-02-03T09:58:03.218Z,101587.09
2023-02-03T09:59:06.321Z,101587.28
2023-02-03T10:00:22.497Z,101591.44
2023-02-03T10:01:30.653Z,101588.25
2023-02-03T10:02:55.752Z,101593.16
2023-02-03T10:04:39.944Z,101597.34
2023-02-03T10:06:17.052Z,101580.75
2023-02-03T10:07:31.962Z,101599.06
2023-02-03T10:08:49.039Z,101593.75
2023-02-03T10:10:10.962Z,101600.97
2023-02-03T10:11:18.557Z,101602.75
2023-02-03T10:12:50.648Z,101605.50
2023-02-03T10:14:33.179Z,101605.88
2023-02-03T10:15:41.856Z,101593.28
2023-02-03T10:17:14.202Z,101608.94
2023-02-03T10:18:23.964Z,101605.41
2023-02-03T10:20:01.278Z,101596.41
2023-02-03T10:21:11.795Z,101617.75
2023-02-03T10:22:20.795Z,101617.06
2023-02-03T10:23:38.689Z,101624.09
2023-02-03T10:24:46.090Z,101628.66
2023-02-03T10:25:57.718Z,101615.47
2023-02-03T10:27:00.012Z,101626.88
2023-02-03T10:28:09.018Z,101604.03
2023-02-03T10:29:21.421Z,101636.81
2023-02-03T10:30:45.465Z,101635.66
2023-02-03T10:31:48.567Z,101631.22
2023-02-03T10:33:16.383Z,101636.44
2023-02-03T10:34:19.945Z,101614.81
2023-02-03T10:35:36.689Z,101634.72
2023-02-03T10:37:03.713Z,101628.56
2023-02-03T10:38:08.925Z,101633.69
2023-02-03T10:39:22.652Z,101607.63
2023-02-03T10:40:26.526Z,101633.13
2023-02-03T10:41:30.301Z,101648.94
2023-02-03T10:42:53.222Z,101652.56
2023-02-03T10:43:57.535Z,101641.84
2023-02-03T10:45:00.119Z,101644.41
2023-02-03T10:46:02.192Z,101645.34
2023-02-03T10:47:18.283Z,101633.41
2023-02-03T10:48:20.208Z,101648.78
2023-02-03T10:49:22.522Z,101657.69
2023-02-03T10:50:31.893Z,101653.31
2023-02-03T10:51:41.881Z,101657.88
2023-02-03T10:52:43.779Z,101636.19
2023-02-03T10:53:46.653Z,101666.53
2023-02-03T10:54:48.485Z,101654.19
2023-02-03T10:56:01.444Z,101662.16
2023-02-03T10:57:12.661Z,101651.06
2023-02-03T10:58:27.385Z,101666.44
2023-02-03T10:59:31.947Z,101662.63
2023-02-03T11:00:36.231Z,101662.16
2023-02-03T11:01:49.301Z,101669.72
2023-02-03T11:03:00.385Z,101677.63
2023-02-03T11:04:04.983Z,101663.78
2023-02-03T11:05:22.490Z,101680.16
2023-02-03T11:06:24.340Z,101672.19
2023-02-03T11:07:27.285Z,101687.38
2023-02-03T11:08:32.924Z,101677.06
2023-02-03T11:09:42.942Z,101682.19
2023-02-03T11:10:44.854Z,101678.47
2023-02-03T11:11:46.656Z,101689.22
2023-02-03T11:12:48.776Z,101673.63
2023-02-03T11:14:17.040Z,101687.09
2023-02-03T11:15:18.905Z,101684.53
2023-02-03T11:16:22.052Z,101678.84
2023-02-03T11:17:29.792Z,101678.50
2023-02-03T11:18:37.357Z,101702.31
2023-02-03T11:19:39.537Z,101691.75
2023-02-03T11:20:41.349Z,101698.78
2023-02-03T11:21:47.951Z,101706.00
2023-02-03T11:22:50.145Z,101698.88
2023-02-03T11:23:57.000Z,101705.16
2023-02-03T11:25:00.186Z,101686.16
2023-02-03T11:26:11.352Z,101699.84
2023-02-03T11:27:18.545Z,101688.81
2023-02-03T11:28:22.114Z,101704.97
2023-02-03T11:29:28.518Z,101707.50
2023-02-03T11:30:30.849Z,101719.00
2023-02-03T11:31:35.629Z,101717.28
2023-02-03T11:32:44.197Z,101711.22
2023-02-03T11:33:52.308Z,101717.19
2023-02-03T11:34:56.698Z,101721.53
2023-02-03T11:35:59.866Z,101689.59
2023-02-03T11:37:32.095Z,101733.69
2023-02-03T11:38:40.308Z,101729.13
2023-02-03T11:39:42.169Z,101734.56
2023-02-03T11:40:43.999Z,101736.47
2023-02-03T11:41:47.274Z,101735.91
2023-02-03T11:42:49.029Z,101740.06
2023-02-03T11:43:55.939Z,101744.63
2023-02-03T11:45:14.646Z,101739.13
2023-02-03T11:46:16.912Z,101742.53
2023-02-03T11:47:19.502Z,101737.88
2023-02-03T11:49:02.534Z,101755.81
2023-02-03T11:50:26.077Z,101756.38
2023-02-03T11:51:45.032Z,101758.97
2023-02-03T11:53:07.085Z,101759.78
2023-02-03T11:54:20.935Z,101762.44
2023-02-03T11:55:22.704Z,101771.38
2023-02-03T11:57:01.853Z,101767.88
2023-02-03T11:58:40.633Z,101771.09
2023-02-03T11:59:51.295Z,101775.56
2023-02-03T12:01:20.722Z,101772.06
2023-02-03T12:02:41.035Z,101775.75
2023-02-03T12:03:54.785Z,101780.09
2023-02-03T12:05:04.888Z,101779.34
2023-02-03T12:06:44.587Z,101776.63
2023-02-03T12:08:08.388Z,101785.44
2023-02-03T12:09:20.907Z,101781.81
2023-02-03T12:10:22.792Z,101788.09
2023-02-03T12:11:52.109Z,101789.16
2023-02-03T12:13:05.903Z,101795.31
2023-02-03T12:14:50.023Z,101797.78
2023-02-03T12:16:10.222Z,101790.56
2023-02-03T12:17:30.802Z,101800.22
2023-02-03T12:18:48.647Z,101796.06
2023-02-03T12:19:56.543Z,101792.66
2023-02-03T12:21:04.610Z,101789.63
2023-02-03T12:22:29.742Z,101804.31
2023-02-03T12:23:46.048Z,101804.03
2023-02-03T12:25:06.283Z,101791.13
2023-02-03T12:26:29.821Z,101791.31
2023-02-03T12:27:31.564Z,101808.41
2023-02-03T12:28:52.860Z,101804.16
2023-02-03T12:30:09.421Z,101804.16
2023-02-03T12:31:36.761Z,101813.72
2023-02-03T12:32:45.736Z,101805.09
2023-02-03T12:33:52.747Z,101805.94